This is the latest recevied weather packets stored in our database for station/object iz1wiy-2. If no packets are shown the sender has not sent any weather packets the latest 1 day(s).
| Time | Temp. | Humidity | Pressure | Rain* | Wind** | Luminosity | Snow |
|---|---|---|---|---|---|---|---|
| 1777974903 | 18.33° C | 84% | 1011.9 hPa | 0 mm | 3.13 m/s, 216° | - | - |
| 1777974603 | 17.78° C | 84% | 1011.8 hPa | 0 mm | 3.13 m/s, 228° | - | - |
| 1777974303 | 17.78° C | 84% | 1011.6 hPa | 0 mm | 3.13 m/s, 229° | - | - |
| 1777974003 | 17.78° C | 84% | 1011.7 hPa | 0 mm | 2.68 m/s, 233° | - | - |
| 1777973703 | 18.33° C | 84% | 1011.8 hPa | 0 mm | 1.79 m/s, 238° | - | - |
| 1777973403 | 18.33° C | 84% | 1011.7 hPa | 0 mm | 0.45 m/s, 235° | - | - |
| 1777973103 | 17.78° C | 84% | 1011.7 hPa | 0 mm | 0 m/s | - | - |
| 1777972803 | 17.22° C | 84% | 1011.6 hPa | 0 mm | 0 m/s | - | - |
| 1777972503 | 17.22° C | 84% | 1011.6 hPa | 0 mm | 0 m/s | - | - |
| 1777972203 | 16.67° C | 84% | 1011.6 hPa | 0 mm | 0 m/s | - | - |
| 1777971903 | 16.67° C | 83% | 1011.6 hPa | 0 mm | 0 m/s | - | - |
| 1777971603 | 16.67° C | 84% | 1011.6 hPa | 0 mm | 0 m/s | - | - |
| 1777971303 | 16.67° C | 84% | 1011.5 hPa | 0 mm | 0 m/s | - | - |
| 1777971003 | 16.11° C | 84% | 1011.5 hPa | 0 mm | 0 m/s | - | - |
| 1777970703 | 16.11° C | 84% | 1011.4 hPa | 0 mm | 0.45 m/s, 213° | - | - |
| 1777970403 | 15.56° C | 84% | 1011.4 hPa | 0 mm | 0.45 m/s, 218° | - | - |
| 1777970104 | 15.56° C | 84% | 1011.4 hPa | 0 mm | 0 m/s | - | - |
| 1777969803 | 15.56° C | 84% | 1011.5 hPa | 0 mm | 0.45 m/s, 223° | - | - |
| 1777969503 | 15.56° C | 84% | 1011.5 hPa | 0 mm | 0.45 m/s, 234° | - | - |
| 1777969203 | 15.56° C | 84% | 1011.4 hPa | 0 mm | 0.45 m/s, 245° | - | - |
| 1777968903 | 15.56° C | 84% | 1011.4 hPa | 0 mm | 0.45 m/s, 247° | - | - |
| 1777968603 | 15.56° C | 84% | 1011.3 hPa | 0 mm | 0.45 m/s, 249° | - | - |
| 1777968303 | 15.56° C | 84% | 1011.4 hPa | 0 mm | 0.45 m/s, 260° | - | - |
| 1777968004 | 15.56° C | 84% | 1011.4 hPa | 0 mm | 0 m/s | - | - |
| 1777967703 | 15.56° C | 84% | 1011.5 hPa | 0 mm | 0 m/s | - | - |
* Rain latest hour (hover to see other rain measurements)
** Current wind speed in m/s (hover to see current wind gust speed)